Time;durP1;ratioP1;P1;durP2;ratioP2;P2;SDS_P1;SDS_P2;PMS_P1;PMS_P2;Temp;Humidity;BMP_temperature;BMP_pressure;BME280_temperature;BME280_humidity;BME280_pressure;Samples;Min_cycle;Max_cycle;Signal;HPM_P1;HPM_P2
2021/08/30 00:01:53;;;;;;;13.80;11.55;;;;;;;14.65;100.00;92799.31;5071703;28;20040;-81
2021/08/30 00:04:20;;;;;;;14.75;12.52;;;;;;;14.51;100.00;92784.22;5072157;28;20056;-82
2021/08/30 00:06:48;;;;;;;15.80;12.88;;;;;;;14.57;100.00;92806.50;5072430;28;20053;-82
2021/08/30 00:09:16;;;;;;;16.38;13.20;;;;;;;14.57;100.00;92811.66;5071589;28;20045;-81
2021/08/30 00:11:44;;;;;;;14.18;12.60;;;;;;;14.49;100.00;92798.41;5071254;28;20060;-81
2021/08/30 00:14:11;;;;;;;14.27;12.73;;;;;;;14.58;100.00;92815.00;5070675;28;20123;-81
2021/08/30 00:16:38;;;;;;;15.48;12.60;;;;;;;14.54;100.00;92811.38;5071455;28;20507;-81
2021/08/30 00:19:05;;;;;;;15.38;12.60;;;;;;;14.30;100.00;92791.75;5071781;28;20048;-81
2021/08/30 00:21:32;;;;;;;16.55;13.45;;;;;;;14.39;100.00;92793.88;5071233;28;20106;-81
2021/08/30 00:23:58;;;;;;;15.13;13.02;;;;;;;14.51;100.00;92814.44;5071101;28;20040;-81
2021/08/30 00:26:25;;;;;;;15.38;12.52;;;;;;;14.47;100.00;92814.16;5071601;28;20044;-81
2021/08/30 00:28:53;;;;;;;16.92;13.13;;;;;;;14.47;100.00;92818.53;5071111;28;20491;-81
2021/08/30 00:31:20;;;;;;;15.10;13.50;;;;;;;14.25;100.00;92790.91;5071935;28;20045;-81
2021/08/30 00:33:47;;;;;;;14.73;13.10;;;;;;;14.41;100.00;92810.72;5071955;28;20454;-81
2021/08/30 00:36:14;;;;;;;16.42;13.25;;;;;;;14.41;100.00;92817.69;5071375;28;20052;-81
2021/08/30 00:38:40;;;;;;;17.50;13.77;;;;;;;14.35;100.00;92818.69;5071066;28;20057;-81
2021/08/30 00:41:07;;;;;;;14.57;12.27;;;;;;;14.12;100.00;92808.34;5070980;28;20048;-81
2021/08/30 00:43:34;;;;;;;14.57;12.55;;;;;;;14.18;100.00;92822.09;5071067;28;20048;-81
2021/08/30 00:46:03;;;;;;;15.82;12.68;;;;;;;13.80;100.00;92779.84;5071121;28;20053;-81
2021/08/30 00:48:29;;;;;;;16.42;13.82;;;;;;;13.89;100.00;92809.38;5071117;28;20066;-81
2021/08/30 00:50:58;;;;;;;15.70;12.80;;;;;;;13.93;100.00;92825.19;5070698;28;20495;-80
2021/08/30 00:53:25;;;;;;;14.40;12.82;;;;;;;13.97;100.00;92828.81;5070663;28;20045;-80
2021/08/30 00:55:52;;;;;;;13.95;11.95;;;;;;;13.67;100.00;92817.09;5070777;28;20098;-80
2021/08/30 00:58:18;;;;;;;14.43;12.50;;;;;;;13.71;100.00;92833.69;5070539;28;20056;-80
2021/08/30 01:00:45;;;;;;;14.02;12.52;;;;;;;13.65;100.00;92840.56;5071115;28;20049;-81
2021/08/30 01:03:14;;;;;;;15.45;12.95;;;;;;;13.47;100.00;92832.06;5070959;28;20385;-80
2021/08/30 01:05:45;;;;;;;15.68;13.23;;;;;;;13.60;100.00;92838.69;5070818;28;20041;-80
2021/08/30 01:08:18;;;;;;;14.48;12.88;;;;;;;13.59;100.00;92838.94;5070278;28;20051;-80
2021/08/30 01:10:52;;;;;;;15.02;12.27;;;;;;;13.75;100.00;92839.94;5070264;28;20068;-80
2021/08/30 01:13:26;;;;;;;16.08;12.63;;;;;;;13.44;100.00;92796.41;5070330;28;20048;-80
2021/08/30 01:15:54;;;;;;;15.80;12.85;;;;;;;13.73;100.00;92834.22;5070405;28;20132;-80
2021/08/30 01:18:26;;;;;;;13.60;12.18;;;;;;;13.70;100.00;92835.47;5070212;28;20048;-79
2021/08/30 01:21:02;;;;;;;15.45;13.43;;;;;;;13.68;100.00;92829.78;5069985;28;20063;-80
2021/08/30 01:23:31;;;;;;;14.25;12.18;;;;;;;13.72;100.00;92838.59;5070018;28;20511;-80
2021/08/30 01:26:03;;;;;;;14.85;12.70;;;;;;;13.76;100.00;92844.06;5069950;28;20048;-80
2021/08/30 01:28:35;;;;;;;15.98;12.43;;;;;;;13.60;100.00;92832.75;5070208;28;20562;-79
2021/08/30 01:31:08;;;;;;;13.82;12.13;;;;;;;13.61;100.00;92831.75;5069853;28;20057;-80
2021/08/30 01:33:37;;;;;;;15.18;12.82;;;;;;;13.74;100.00;92851.25;5069732;28;20059;-80
2021/08/30 01:36:06;;;;;;;13.68;11.50;;;;;;;13.63;100.00;92855.50;5070380;28;20053;-80
2021/08/30 01:38:33;;;;;;;14.48;12.02;;;;;;;13.43;100.00;92849.00;5070020;28;21196;-80
2021/08/30 01:41:01;;;;;;;13.13;11.43;;;;;;;13.21;100.00;92805.09;5069826;28;20044;-80
2021/08/30 01:43:29;;;;;;;12.48;9.95;;;;;;;13.18;100.00;92833.91;5070051;28;20045;-80
2021/08/30 01:45:57;;;;;;;10.88;9.45;;;;;;;12.98;100.00;92853.22;5069953;28;20059;-80
2021/08/30 01:48:24;;;;;;;10.98;9.38;;;;;;;12.98;100.00;92842.13;5069653;28;20049;-80
2021/08/30 01:50:52;;;;;;;12.60;10.23;;;;;;;13.16;100.00;92846.28;5069785;28;20056;-80
2021/08/30 01:53:20;;;;;;;11.35;9.88;;;;;;;12.93;100.00;92809.31;5069908;28;20053;-80
2021/08/30 01:55:49;;;;;;;10.43;8.48;;;;;;;13.00;100.00;92842.69;5069501;28;20532;-79
2021/08/30 02:01:01;;;;;;;10.60;8.53;;;;;;;13.00;100.00;92850.41;5069727;28;20051;-81
2021/08/30 02:03:29;;;;;;;10.23;9.00;;;;;;;12.94;100.00;92855.50;5069438;28;20055;-81
2021/08/30 02:05:59;;;;;;;11.13;9.57;;;;;;;13.02;100.00;92853.53;5069301;28;20094;-81
2021/08/30 02:08:27;;;;;;;9.82;8.30;;;;;;;13.22;100.00;92858.22;5069549;28;20392;-81
2021/08/30 02:10:58;;;;;;;9.57;8.15;;;;;;;13.20;100.00;92847.38;5069370;28;20117;-80
2021/08/30 02:13:28;;;;;;;9.02;7.60;;;;;;;13.19;100.00;92854.31;5070092;28;20048;-80
2021/08/30 02:15:56;;;;;;;8.90;7.38;;;;;;;13.06;100.00;92837.34;5069931;28;20114;-81
2021/08/30 02:18:28;;;;;;;10.50;8.40;;;;;;;13.15;100.00;92863.53;5070036;28;20052;-81
2021/08/30 02:21:03;;;;;;;11.40;9.15;;;;;;;12.99;100.00;92862.53;5069527;28;20051;-81
2021/08/30 02:23:33;;;;;;;11.55;10.02;;;;;;;13.01;100.00;92865.63;5069483;28;20036;-79
2021/08/30 02:26:07;;;;;;;11.10;8.63;;;;;;;13.05;100.00;92873.72;5069240;28;20458;-79
2021/08/30 02:28:36;;;;;;;10.27;9.02;;;;;;;13.24;100.00;92869.09;5069013;28;20044;-79
2021/08/30 02:31:03;;;;;;;12.18;9.80;;;;;;;13.13;100.00;92863.00;5069407;28;20070;-80
2021/08/30 02:33:31;;;;;;;11.18;9.55;;;;;;;13.10;100.00;92866.03;5069399;28;20568;-81
2021/08/30 02:36:03;;;;;;;12.13;9.80;;;;;;;13.02;100.00;92841.44;5068685;28;20049;-80
2021/08/30 02:38:32;;;;;;;9.20;8.15;;;;;;;13.30;100.00;92870.75;5069415;28;20048;-81
2021/08/30 02:41:00;;;;;;;10.00;8.77;;;;;;;13.40;100.00;92871.91;5068964;28;20048;-80
2021/08/30 02:43:28;;;;;;;9.70;7.95;;;;;;;13.62;100.00;92874.59;5068985;28;20044;-80
2021/08/30 02:45:56;;;;;;;9.57;7.25;;;;;;;13.62;100.00;92879.75;5068331;28;20049;-81
2021/08/30 02:48:24;;;;;;;8.38;7.18;;;;;;;13.73;100.00;92873.72;5064322;28;20055;-81
2021/08/30 02:50:51;;;;;;;9.07;7.30;;;;;;;13.73;100.00;92872.94;5067193;28;20059;-81
2021/08/30 02:53:20;;;;;;;9.13;6.55;;;;;;;13.83;100.00;92877.44;5068067;28;20103;-80
2021/08/30 02:55:47;;;;;;;10.80;7.25;;;;;;;13.87;100.00;92879.31;5068852;28;20103;-79
2021/08/30 02:58:15;;;;;;;8.10;6.30;;;;;;;13.85;100.00;92886.50;5068640;28;20423;-80
2021/08/30 03:00:41;;;;;;;10.45;7.60;;;;;;;13.79;100.00;92882.31;5069102;28;20045;-80
2021/08/30 03:03:09;;;;;;;8.57;6.63;;;;;;;13.82;100.00;92884.41;5068744;28;20049;-80
2021/08/30 03:05:39;;;;;;;8.85;6.80;;;;;;;13.87;100.00;92886.28;5069142;28;20143;-80
2021/08/30 03:08:07;;;;;;;18.48;14.23;;;;;;;13.68;100.00;92881.38;5068688;28;20047;-80
2021/08/30 03:10:36;;;;;;;10.27;6.47;;;;;;;13.49;100.00;92884.22;5068842;28;20048;-79
2021/08/30 03:13:06;;;;;;;12.07;9.52;;;;;;;13.36;100.00;92885.28;5068698;28;20053;-79
2021/08/30 03:15:34;;;;;;;8.57;6.55;;;;;;;13.20;100.00;92855.88;5068840;28;20071;-79
2021/08/30 03:18:03;;;;;;;7.72;5.75;;;;;;;13.04;100.00;92872.91;5068991;28;20175;-80
2021/08/30 03:20:31;;;;;;;10.93;6.63;;;;;;;13.19;100.00;92874.19;5068782;28;20060;-79
2021/08/30 03:23:01;;;;;;;7.97;5.38;;;;;;;13.31;100.00;92885.22;5068829;28;20045;-79
2021/08/30 03:25:33;;;;;;;11.57;8.38;;;;;;;13.38;100.00;92887.63;5068518;28;20044;-80
2021/08/30 03:28:03;;;;;;;18.70;13.38;;;;;;;13.39;100.00;92889.19;5068829;28;20044;-80
2021/08/30 03:30:30;;;;;;;13.15;8.65;;;;;;;13.36;100.00;92882.72;5068560;28;20495;-79
2021/08/30 03:32:59;;;;;;;32.65;18.98;;;;;;;13.41;100.00;92888.94;5068429;28;20495;-79
2021/08/30 03:35:28;;;;;;;40.28;21.25;;;;;;;13.45;100.00;92890.84;5068410;28;20048;-79
2021/08/30 03:37:56;;;;;;;29.92;17.45;;;;;;;13.44;100.00;92891.84;5068312;28;20051;-79
2021/08/30 03:40:24;;;;;;;21.45;13.35;;;;;;;13.47;100.00;92896.56;5068783;28;20048;-79
2021/08/30 03:42:52;;;;;;;93.65;49.78;;;;;;;13.46;100.00;92900.16;5068367;28;20091;-79
2021/08/30 03:45:21;;;;;;;59.92;33.28;;;;;;;13.46;100.00;92907.09;5068697;28;20495;-79
2021/08/30 03:47:48;;;;;;;86.47;45.50;;;;;;;13.46;100.00;92907.91;5068695;28;20053;-80
2021/08/30 03:50:16;;;;;;;74.43;39.65;;;;;;;13.42;100.00;92906.00;5071992;28;20048;-80
2021/08/30 03:52:43;;;;;;;35.17;18.75;;;;;;;13.39;100.00;92896.94;5072132;28;20053;-80
2021/08/30 03:55:11;;;;;;;24.17;12.98;;;;;;;13.39;100.00;92902.09;5072473;28;20048;-80
2021/08/30 03:57:39;;;;;;;14.57;8.90;;;;;;;13.44;100.00;92915.09;5072181;28;20071;-80
2021/08/30 04:00:08;;;;;;;14.50;8.30;;;;;;;13.43;100.00;92915.31;5071824;28;20056;-80
2021/08/30 04:02:40;;;;;;;12.77;8.38;;;;;;;13.37;100.00;92914.44;5071620;28;20114;-80
2021/08/30 04:05:08;;;;;;;12.90;7.68;;;;;;;13.33;100.00;92911.53;5071704;28;20063;-80
2021/08/30 04:07:36;;;;;;;10.93;7.32;;;;;;;13.23;100.00;92907.00;5071673;28;20488;-80
2021/08/30 04:10:04;;;;;;;9.50;6.50;;;;;;;13.23;100.00;92903.63;5071611;28;20057;-80
2021/08/30 04:12:31;;;;;;;9.57;6.95;;;;;;;13.07;100.00;92900.81;5071579;28;20056;-80
2021/08/30 04:14:59;;;;;;;11.75;6.93;;;;;;;13.09;100.00;92905.72;5071830;28;20451;-80
2021/08/30 04:17:26;;;;;;;10.75;7.20;;;;;;;13.17;100.00;92923.41;5071719;28;20090;-79
2021/08/30 04:19:54;;;;;;;11.90;8.45;;;;;;;13.10;100.00;92915.03;5071291;28;20048;-80
2021/08/30 04:22:21;;;;;;;12.18;7.53;;;;;;;13.19;100.00;92910.28;5071569;28;20044;-79
2021/08/30 04:24:48;;;;;;;8.80;6.80;;;;;;;13.19;100.00;92926.53;5071595;28;20060;-80
2021/08/30 04:27:15;;;;;;;10.57;7.18;;;;;;;13.20;100.00;92922.94;5071391;28;20048;-79
2021/08/30 04:29:42;;;;;;;14.88;7.32;;;;;;;13.23;100.00;92925.06;5071205;28;20049;-79
2021/08/30 04:32:10;;;;;;;12.93;7.85;;;;;;;13.22;100.00;92920.13;5071377;28;20169;-80
2021/08/30 04:34:38;;;;;;;14.05;8.95;;;;;;;13.12;100.00;92915.59;5071149;28;20574;-80
2021/08/30 04:37:06;;;;;;;12.35;8.52;;;;;;;13.10;100.00;92933.06;5071413;28;20094;-80
2021/08/30 04:39:33;;;;;;;17.40;10.20;;;;;;;13.14;100.00;92934.19;5071186;28;20044;-80
2021/08/30 04:42:02;;;;;;;13.82;9.05;;;;;;;12.93;100.00;92936.44;5070930;28;20492;-80
2021/08/30 04:44:28;;;;;;;11.05;8.57;;;;;;;12.78;100.00;92936.91;5071052;28;20051;-79
2021/08/30 04:46:55;;;;;;;14.50;9.45;;;;;;;12.76;100.00;92940.72;5071311;28;20083;-79
2021/08/30 04:49:22;;;;;;;13.27;8.52;;;;;;;12.83;100.00;92939.59;5071067;28;20074;-79
2021/08/30 04:51:49;;;;;;;10.00;7.80;;;;;;;12.82;100.00;92935.44;5070676;28;20049;-79
2021/08/30 04:54:19;;;;;;;8.98;7.10;;;;;;;12.94;100.00;92938.00;5070672;28;20465;-79
2021/08/30 04:56:46;;;;;;;10.20;7.00;;;;;;;12.73;100.00;92913.63;5070956;28;20094;-79
2021/08/30 04:59:13;;;;;;;9.63;6.95;;;;;;;13.01;100.00;92935.25;5070403;28;20048;-80
2021/08/30 05:01:40;;;;;;;10.77;7.60;;;;;;;12.91;100.00;92946.16;5070841;28;20040;-80
2021/08/30 05:04:07;;;;;;;10.60;6.82;;;;;;;13.02;100.00;92931.69;5070555;28;20573;-79
2021/08/30 05:06:34;;;;;;;9.80;7.55;;;;;;;13.19;100.00;92931.69;5070305;28;20045;-79
2021/08/30 05:09:00;;;;;;;10.80;6.95;;;;;;;13.32;100.00;92927.25;5070761;28;20048;-79
2021/08/30 05:11:29;;;;;;;8.98;5.93;;;;;;;13.31;100.00;92915.38;5070632;28;20056;-79
2021/08/30 05:13:55;;;;;;;6.22;5.13;;;;;;;13.43;100.00;92938.53;5070738;28;20065;-80
2021/08/30 05:16:22;;;;;;;8.60;6.05;;;;;;;13.35;100.00;92937.91;5070616;28;20044;-80
2021/08/30 05:18:49;;;;;;;8.18;6.40;;;;;;;13.52;100.00;92937.13;5070516;28;20063;-79
2021/08/30 05:21:16;;;;;;;6.80;5.60;;;;;;;13.47;100.00;92942.25;5070763;28;20075;-79
2021/08/30 05:23:43;;;;;;;6.97;5.32;;;;;;;13.49;100.00;92947.94;5070642;28;20564;-79
2021/08/30 05:26:09;;;;;;;6.80;5.80;;;;;;;13.61;100.00;92942.72;5070955;28;20053;-80
2021/08/30 05:28:38;;;;;;;7.57;5.65;;;;;;;13.66;100.00;92947.16;5070679;28;20495;-79
2021/08/30 05:31:05;;;;;;;6.63;5.28;;;;;;;13.60;100.00;92916.13;5070555;28;20059;-80
2021/08/30 05:33:32;;;;;;;8.63;5.40;;;;;;;13.83;100.00;92927.28;5069641;28;20503;-79
2021/08/30 05:35:59;;;;;;;5.45;4.80;;;;;;;14.07;100.00;92947.75;5070182;28;20047;-80
2021/08/30 05:38:25;;;;;;;7.32;5.05;;;;;;;14.15;100.00;92965.44;5069873;28;20055;-79
2021/08/30 05:40:52;;;;;;;6.43;4.63;;;;;;;14.04;100.00;92955.97;5064923;28;20045;-79
2021/08/30 05:43:19;;;;;;;6.03;5.13;;;;;;;13.90;100.00;92953.72;5070116;28;20453;-79
2021/08/30 05:45:47;;;;;;;7.20;4.47;;;;;;;13.85;100.00;92953.63;5069718;28;20040;-79
2021/08/30 05:48:14;;;;;;;7.50;4.63;;;;;;;13.93;100.00;92951.69;5069842;28;20094;-79
2021/08/30 05:50:41;;;;;;;6.30;4.82;;;;;;;13.94;100.00;92956.63;5070200;28;20110;-79
2021/08/30 05:53:08;;;;;;;22.13;8.38;;;;;;;14.25;100.00;92964.00;5070077;28;20503;-79
2021/08/30 05:55:34;;;;;;;8.57;5.40;;;;;;;14.52;100.00;92964.09;5069968;28;20109;-79
2021/08/30 05:58:01;;;;;;;7.93;5.50;;;;;;;14.81;100.00;92965.72;5069787;28;20048;-80
2021/08/30 06:00:28;;;;;;;5.28;4.20;;;;;;;14.91;100.00;92972.84;5069525;28;20041;-80
2021/08/30 06:02:56;;;;;;;8.32;5.13;;;;;;;15.15;100.00;92968.19;5069358;28;20412;-80
2021/08/30 06:05:23;;;;;;;7.65;4.65;;;;;;;15.14;99.52;92950.31;5069756;28;20114;-80
2021/08/30 06:07:50;;;;;;;6.50;5.47;;;;;;;15.26;99.51;92932.81;5069339;28;20086;-80
2021/08/30 06:10:16;;;;;;;7.47;5.13;;;;;;;15.57;96.75;92971.91;5069445;28;20053;-79
2021/08/30 06:12:44;;;;;;;7.25;5.40;;;;;;;15.54;96.08;92963.84;5068780;28;20505;-80
2021/08/30 06:15:11;;;;;;;7.25;4.90;;;;;;;15.03;99.11;92957.16;5069548;28;20400;-80
2021/08/30 06:17:38;;;;;;;8.10;4.70;;;;;;;15.45;99.08;92966.88;5069644;28;20102;-80
2021/08/30 06:20:08;;;;;;;7.70;4.75;;;;;;;15.65;96.79;92949.97;5069187;28;20041;-80
2021/08/30 06:22:35;;;;;;;8.13;5.00;;;;;;;16.10;97.06;92966.09;5069092;28;20083;-79
2021/08/30 06:25:02;;;;;;;8.43;5.45;;;;;;;16.16;95.39;92936.59;5067200;28;20049;-79
2021/08/30 06:27:28;;;;;;;6.10;4.38;;;;;;;16.40;90.51;92951.75;5069159;28;20052;-80
2021/08/30 06:29:55;;;;;;;7.55;4.40;;;;;;;16.43;88.72;92971.19;5069479;28;20380;-79
2021/08/30 06:32:22;;;;;;;7.35;4.90;;;;;;;16.68;90.18;92967.19;5069352;28;20056;-80
2021/08/30 06:34:49;;;;;;;6.78;4.43;;;;;;;16.38;88.65;92968.59;5069269;28;20106;-80
2021/08/30 06:37:17;;;;;;;9.35;5.40;;;;;;;16.42;92.97;92952.28;5069302;28;20510;-79
2021/08/30 06:39:44;;;;;;;7.20;5.00;;;;;;;16.16;89.21;92909.91;5069425;28;20127;-80
2021/08/30 06:42:11;;;;;;;5.68;4.75;;;;;;;16.94;90.02;92972.47;5068877;28;20600;-80
2021/08/30 06:44:38;;;;;;;5.32;4.13;;;;;;;16.74;86.71;92967.97;5069385;28;20044;-79
2021/08/30 06:47:05;;;;;;;9.02;4.15;;;;;;;17.15;89.75;92959.56;5069759;28;20049;-80
2021/08/30 06:49:31;;;;;;;12.35;5.55;;;;;;;17.38;89.67;92947.13;5069609;28;20060;-79
2021/08/30 06:51:58;;;;;;;9.45;4.80;;;;;;;17.85;88.69;92972.09;5069638;28;20053;-79
2021/08/30 06:54:26;;;;;;;7.15;3.85;;;;;;;18.20;84.22;92967.16;5069774;28;20052;-79
2021/08/30 06:56:53;;;;;;;6.90;3.65;;;;;;;18.51;81.76;92980.06;5068955;28;20051;-79
2021/08/30 06:59:20;;;;;;;6.10;4.18;;;;;;;18.52;83.31;92978.25;5069156;28;20052;-80
2021/08/30 07:01:47;;;;;;;5.32;3.88;;;;;;;18.61;80.31;92961.03;5068906;28;20049;-80
2021/08/30 07:04:14;;;;;;;8.90;4.20;;;;;;;18.78;82.00;92967.75;5068592;28;20049;-80
2021/08/30 07:06:41;;;;;;;6.13;3.50;;;;;;;17.76;81.47;92971.84;5068979;28;20053;-81
2021/08/30 07:09:07;;;;;;;5.40;3.72;;;;;;;17.76;82.07;92952.84;5068782;28;20049;-80
2021/08/30 07:11:36;;;;;;;5.18;4.07;;;;;;;17.90;83.94;92963.50;5068592;28;20057;-80
2021/08/30 07:14:03;;;;;;;7.82;4.18;;;;;;;17.36;81.49;92962.97;5068840;28;20063;-81
2021/08/30 07:16:30;;;;;;;7.45;4.20;;;;;;;17.43;83.08;92978.28;5068888;28;20048;-80
2021/08/30 09:35:34;;;;;;;4.45;3.30;;;;;;;21.19;69.26;92950.63;5106675;27;20384;-79
2021/08/30 09:38:01;;;;;;;4.85;2.85;;;;;;;21.61;62.10;92980.34;5107149;28;20059;-78
2021/08/30 09:40:29;;;;;;;4.40;2.90;;;;;;;21.71;65.42;92971.59;5107158;28;20564;-80
2021/08/30 09:42:58;;;;;;;4.25;2.80;;;;;;;21.61;62.09;92976.94;5107450;28;20044;-80
2021/08/30 09:45:26;;;;;;;7.30;3.40;;;;;;;21.94;64.14;92971.75;5107093;28;20074;-80
2021/08/30 09:47:58;;;;;;;5.22;3.65;;;;;;;22.17;64.23;92971.91;5107432;28;20044;-80
2021/08/30 09:50:29;;;;;;;7.50;3.13;;;;;;;22.14;65.20;92925.41;5106909;28;20051;-81
2021/08/30 09:52:59;;;;;;;7.03;3.40;;;;;;;22.42;61.47;92944.53;5106620;28;20048;-81
2021/08/30 09:55:27;;;;;;;5.13;3.30;;;;;;;22.55;58.73;92931.75;5104578;28;20340;-81
2021/08/30 09:57:56;;;;;;;4.03;3.13;;;;;;;22.99;57.05;92968.09;5103107;28;20131;-82
2021/08/30 10:00:24;;;;;;;3.50;2.63;;;;;;;22.13;55.73;92924.63;5104943;28;20147;-81
2021/08/30 10:02:53;;;;;;;6.05;3.42;;;;;;;22.32;59.11;92954.41;5106650;28;20059;-81
2021/08/30 10:05:21;;;;;;;6.32;3.65;;;;;;;22.34;56.29;92897.31;5106496;28;20122;-80
2021/08/30 10:07:49;;;;;;;5.15;3.50;;;;;;;22.92;55.64;92960.63;5106298;28;20077;-80
2021/08/30 10:10:18;;;;;;;6.57;3.53;;;;;;;22.75;55.47;92963.81;5106286;28;20048;-80
2021/08/30 10:12:45;;;;;;;3.53;2.33;;;;;;;22.46;57.54;92957.03;5106312;28;20051;-81
2021/08/30 10:15:14;;;;;;;4.25;2.65;;;;;;;22.36;58.04;92889.97;5106135;28;20051;-81
2021/08/30 10:17:47;;;;;;;4.72;2.58;;;;;;;23.00;58.94;92932.97;5105954;28;20054;-81
2021/08/30 10:20:18;;;;;;;4.13;3.60;;;;;;;22.85;52.17;92940.06;5106216;28;20055;-81
2021/08/30 10:22:59;;;;;;;5.70;2.65;;;;;;;23.69;56.32;92958.19;5105998;28;20066;-79
2021/08/30 10:25:28;;;;;;;5.70;2.72;;;;;;;22.86;54.73;92941.59;5085507;28;20049;-81
2021/08/30 10:27:57;;;;;;;5.57;2.45;;;;;;;23.08;54.22;92964.47;5085710;28;20386;-81
2021/08/30 10:30:24;;;;;;;3.42;2.22;;;;;;;23.14;52.81;92928.47;5085314;28;20101;-80
2021/08/30 10:32:56;;;;;;;4.35;2.42;;;;;;;23.69;55.05;92941.72;5086030;28;20056;-81
2021/08/30 10:35:25;;;;;;;4.30;2.67;;;;;;;23.56;52.27;92969.53;5078456;28;20052;-81
2021/08/30 10:37:57;;;;;;;4.80;2.40;;;;;;;24.07;51.75;92956.28;5072532;28;20071;-80
2021/08/30 10:40:26;;;;;;;4.93;2.70;;;;;;;24.12;51.32;92932.56;5071705;28;20052;-81
2021/08/30 10:43:07;;;;;;;4.93;2.60;;;;;;;24.59;48.92;92947.09;5071678;28;20501;-79
2021/08/30 10:45:38;;;;;;;5.25;2.72;;;;;;;24.79;50.28;92930.00;5071616;28;20127;-79
2021/08/30 10:48:07;;;;;;;5.03;2.88;;;;;;;24.88;48.75;92951.06;5071676;28;20052;-81
2021/08/30 10:50:40;;;;;;;3.80;2.63;;;;;;;24.26;46.94;92927.22;5071930;28;20048;-81
2021/08/30 10:53:08;;;;;;;8.15;3.00;;;;;;;24.78;49.30;92936.34;5071481;28;20405;-80
2021/08/30 10:55:38;;;;;;;10.20;2.33;;;;;;;24.77;47.42;92937.44;5071723;28;20052;-80
2021/08/30 10:58:19;;;;;;;3.95;2.70;;;;;;;24.65;47.30;92930.13;5071388;28;20060;-81
2021/08/30 11:00:46;;;;;;;5.45;2.83;;;;;;;25.13;46.47;92946.19;5071366;28;20055;-80
2021/08/30 11:03:25;;;;;;;3.83;2.63;;;;;;;25.07;45.98;92937.66;5071307;28;20052;-81
2021/08/30 11:06:01;;;;;;;5.85;2.65;;;;;;;23.63;47.33;92941.03;5071387;28;20048;-80
2021/08/30 11:08:28;;;;;;;6.00;2.60;;;;;;;23.99;49.58;92940.19;5071460;28;20114;-80
2021/08/30 11:11:07;;;;;;;4.95;2.90;;;;;;;24.40;46.67;92933.13;5071348;28;20060;-80
2021/08/30 11:13:35;;;;;;;3.75;2.58;;;;;;;24.29;45.57;92937.09;5071090;28;20499;-82
2021/08/30 11:16:02;;;;;;;3.92;2.67;;;;;;;23.15;47.41;92948.34;5071012;28;20644;-82
2021/08/30 11:18:29;;;;;;;3.58;2.65;;;;;;;22.81;48.40;92936.47;5071114;28;20054;-82
2021/08/30 11:20:56;;;;;;;4.85;2.75;;;;;;;23.31;48.43;92937.53;5070987;28;20053;-81
2021/08/30 11:23:28;;;;;;;5.03;3.15;;;;;;;22.70;50.67;92928.06;5071031;28;20052;-81
2021/08/30 11:26:04;;;;;;;3.00;2.60;;;;;;;22.81;47.12;92890.13;5070743;28;20431;-80
2021/08/30 11:28:31;;;;;;;7.65;2.42;;;;;;;22.58;49.15;92919.94;5071020;28;20049;-80
2021/08/30 11:30:59;;;;;;;4.05;3.08;;;;;;;23.35;50.17;92933.28;5070666;28;20051;-80
2021/08/30 11:33:26;;;;;;;3.72;2.63;;;;;;;23.87;50.20;92943.38;5070577;28;20056;-80
2021/08/30 11:36:00;;;;;;;7.53;3.03;;;;;;;24.21;46.57;92927.34;5070823;28;20044;-80
2021/08/30 11:38:27;;;;;;;3.33;2.42;;;;;;;24.42;47.46;92936.25;5070603;28;20076;-81
2021/08/30 11:40:54;;;;;;;4.40;3.30;;;;;;;24.45;46.07;92927.00;5070644;28;20059;-81
2021/08/30 11:43:20;;;;;;;3.38;2.60;;;;;;;24.90;47.76;92933.91;5070319;28;20047;-80
2021/08/30 11:45:47;;;;;;;4.55;2.60;;;;;;;23.72;45.54;92943.72;5070745;28;20052;-80
2021/08/30 11:48:16;;;;;;;4.00;2.70;;;;;;;24.46;48.06;92922.50;5069443;28;20044;-80
2021/08/30 11:50:44;;;;;;;4.10;2.88;;;;;;;24.75;45.95;92932.47;5070625;28;20052;-80
2021/08/30 11:53:13;;;;;;;6.00;2.95;;;;;;;24.66;47.64;92879.94;5069998;28;20047;-80
2021/08/30 11:55:40;;;;;;;4.32;2.53;;;;;;;25.22;45.51;92910.94;5070195;28;20523;-80
2021/08/30 11:58:08;;;;;;;3.35;2.45;;;;;;;24.42;45.17;92927.59;5070152;28;20040;-80
2021/08/30 12:00:35;;;;;;;3.50;2.30;;;;;;;24.37;47.35;92925.09;5070113;28;20425;-81
2021/08/30 12:03:13;;;;;;;3.85;2.90;;;;;;;24.30;46.17;92928.16;5070377;28;20497;-81
2021/08/30 12:05:44;;;;;;;3.92;2.95;;;;;;;24.43;46.02;92918.63;5070327;28;20053;-81
2021/08/30 12:08:11;;;;;;;5.18;2.90;;;;;;;23.59;45.59;92924.34;5070306;28;20408;-80
2021/08/30 12:10:38;;;;;;;4.38;2.83;;;;;;;23.82;46.91;92904.13;5070324;28;20135;-81
2021/08/30 12:13:20;;;;;;;4.03;2.72;;;;;;;23.43;46.30;92889.88;5070551;28;20461;-81
2021/08/30 12:15:47;;;;;;;4.57;2.97;;;;;;;24.00;48.23;92906.84;5070049;28;20094;-79
2021/08/30 12:18:17;;;;;;;5.20;2.63;;;;;;;24.44;45.42;92907.03;5069958;28;20052;-80
2021/08/30 12:20:45;;;;;;;6.68;3.33;;;;;;;24.29;47.77;92893.28;5069731;28;20052;-80
2021/08/30 12:23:18;;;;;;;5.95;2.90;;;;;;;24.63;48.34;92901.53;5069072;28;20110;-80
2021/08/30 12:25:46;;;;;;;4.85;2.70;;;;;;;24.78;46.56;92887.22;5069544;28;20109;-81
2021/08/30 12:28:15;;;;;;;3.13;2.28;;;;;;;24.41;45.08;92899.78;5069496;28;20111;-80
2021/08/30 12:30:44;;;;;;;3.80;2.70;;;;;;;24.12;46.76;92906.31;5069056;28;20051;-81
2021/08/30 12:33:12;;;;;;;5.05;2.92;;;;;;;24.61;48.02;92905.53;5066487;28;20048;-81
2021/08/30 12:35:40;;;;;;;4.40;2.90;;;;;;;24.95;46.05;92893.59;5069044;28;20595;-80
2021/08/30 12:38:11;;;;;;;5.68;3.03;;;;;;;24.48;45.91;92880.97;5066248;28;20053;-81
2021/08/30 12:40:40;;;;;;;5.65;3.30;;;;;;;24.72;48.23;92904.22;5067516;28;20055;-81
2021/08/30 12:43:08;;;;;;;4.40;2.90;;;;;;;24.65;45.93;92883.66;5068673;28;20044;-81
2021/08/30 12:45:35;;;;;;;5.95;3.28;;;;;;;24.70;47.14;92898.47;5064659;28;20056;-81
2021/08/30 12:48:02;;;;;;;4.30;2.97;;;;;;;25.01;46.67;92899.47;5068932;28;20048;-81
2021/08/30 12:50:30;;;;;;;4.32;2.72;;;;;;;24.07;47.49;92873.06;5068427;28;20047;-81
2021/08/30 12:52:57;;;;;;;11.15;6.65;;;;;;;24.36;46.17;92898.09;5069276;28;20045;-81
2021/08/30 12:55:25;;;;;;;8.52;5.40;;;;;;;24.04;45.67;92894.69;5069355;28;20148;-81
2021/08/30 12:57:52;;;;;;;6.85;4.47;;;;;;;23.58;47.20;92879.03;5068974;28;20056;-81
2021/08/30 13:00:20;;;;;;;5.68;3.17;;;;;;;23.27;46.97;92899.91;5069094;28;20070;-80
2021/08/30 13:02:50;;;;;;;4.40;3.30;;;;;;;23.97;46.98;92894.34;5069526;28;20052;-79
2021/08/30 13:05:18;;;;;;;5.50;3.05;;;;;;;24.40;45.43;92898.25;5069414;28;20143;-80
2021/08/30 13:07:46;;;;;;;5.35;3.80;;;;;;;24.26;46.16;92895.72;5069391;28;20049;-81
2021/08/30 13:10:14;;;;;;;6.35;4.25;;;;;;;24.55;48.62;92889.97;5068925;28;20059;-80
2021/08/30 13:12:44;;;;;;;4.63;3.47;;;;;;;24.85;48.42;92891.28;5069175;28;20514;-81
2021/08/30 13:15:12;;;;;;;6.40;3.97;;;;;;;25.13;49.28;92875.97;5068678;28;20135;-80
2021/08/30 13:17:39;;;;;;;5.50;3.25;;;;;;;25.50;46.39;92886.16;5068906;28;20519;-82
2021/08/30 13:20:09;;;;;;;5.40;3.40;;;;;;;25.79;44.77;92900.53;5069284;28;20055;-82
2021/08/30 13:22:36;;;;;;;7.47;3.50;;;;;;;24.57;45.85;92894.88;5068963;28;20049;-81
2021/08/30 13:25:04;;;;;;;4.07;3.30;;;;;;;24.14;46.34;92870.84;5068811;28;20052;-82
2021/08/30 13:27:32;;;;;;;4.53;3.65;;;;;;;24.40;46.67;92901.63;5068708;28;20044;-82
2021/08/30 13:30:00;;;;;;;4.97;3.67;;;;;;;24.80;47.13;92894.78;5068839;28;20053;-81
2021/08/30 13:32:27;;;;;;;6.20;3.15;;;;;;;24.73;47.36;92894.47;5068743;28;20102;-81
2021/08/30 13:34:54;;;;;;;8.70;3.95;;;;;;;25.20;47.87;92894.69;5069022;28;20058;-80
2021/08/30 13:37:21;;;;;;;8.48;3.63;;;;;;;25.49;45.43;92890.66;5068778;28;20049;-81
2021/08/30 13:39:47;;;;;;;7.15;3.58;;;;;;;25.50;46.24;92873.00;5068763;28;20037;-82
2021/08/30 13:42:14;;;;;;;5.82;3.80;;;;;;;25.83;44.95;92880.41;5069204;28;20053;-82
2021/08/30 13:44:41;;;;;;;5.15;3.90;;;;;;;26.06;44.16;92874.91;5068921;28;20055;-81
2021/08/30 13:47:09;;;;;;;5.22;3.97;;;;;;;24.71;46.71;92873.00;5068750;28;20137;-81
2021/08/30 13:49:36;;;;;;;6.55;4.05;;;;;;;24.47;48.01;92895.94;5068775;28;20045;-81